createdAt,value
2018-01-08T00:00:17.017Z,103307.55
2018-01-08T00:01:21.621Z,103305.96
2018-01-08T00:02:25.857Z,103309.88
2018-01-08T00:03:30.009Z,103307.16
2018-01-08T00:04:34.141Z,103300.23
2018-01-08T00:05:39.136Z,103305.37
2018-01-08T00:06:43.317Z,103308.45
2018-01-08T00:07:47.786Z,103299.36
2018-01-08T00:08:51.899Z,103304.03
2018-01-08T00:09:55.994Z,103309.69
2018-01-08T00:11:00.249Z,103307.39
2018-01-08T00:12:05.157Z,103303.05
2018-01-08T00:13:10.195Z,103290.38
2018-01-08T00:14:14.350Z,103294.09
2018-01-08T00:15:18.862Z,103298.30
2018-01-08T00:16:23.022Z,103287.31
2018-01-08T00:17:27.211Z,103283.18
2018-01-08T00:18:31.386Z,103287.81
2018-01-08T00:19:37.500Z,103293.36
2018-01-08T00:20:41.629Z,103290.55
2018-01-08T00:21:45.741Z,103292.05
2018-01-08T00:22:49.877Z,103291.02
2018-01-08T00:23:53.969Z,103294.64
2018-01-08T00:24:58.254Z,103293.91
2018-01-08T00:26:02.729Z,103291.86
2018-01-08T00:27:06.876Z,103293.64
2018-01-08T00:28:12.044Z,103294.34
2018-01-08T00:29:16.255Z,103290.72
2018-01-08T00:30:20.753Z,103298.48
2018-01-08T00:31:24.903Z,103293.81
2018-01-08T00:32:29.341Z,103292.84
2018-01-08T00:33:34.192Z,103288.04
2018-01-08T00:34:38.620Z,103294.96
2018-01-08T00:35:42.734Z,103288.69
2018-01-08T00:36:46.870Z,103288.23
2018-01-08T00:37:51.160Z,103288.04
2018-01-08T00:38:55.293Z,103286.41
2018-01-08T00:39:59.450Z,103282.33
2018-01-08T00:41:03.709Z,103288.59
2018-01-08T00:42:07.878Z,103281.81
2018-01-08T00:43:12.037Z,103287.83
2018-01-08T00:44:16.197Z,103290.72
2018-01-08T00:45:20.792Z,103281.07
2018-01-08T00:46:24.998Z,103279.39
2018-01-08T00:47:29.145Z,103281.80
2018-01-08T00:48:33.343Z,103274.83
2018-01-08T00:49:37.501Z,103277.34
2018-01-08T00:50:42.527Z,103267.97
2018-01-08T00:51:46.994Z,103271.60
2018-01-08T00:52:51.242Z,103262.62
2018-01-08T00:53:55.461Z,103261.11
2018-01-08T00:54:59.666Z,103254.68
2018-01-08T00:56:03.881Z,103257.55
2018-01-08T00:57:08.054Z,103258.17
2018-01-08T00:58:12.732Z,103255.92
2018-01-08T00:59:16.893Z,103254.21
2018-01-08T01:00:21.257Z,103251.42
2018-01-08T01:01:25.445Z,103246.27
2018-01-08T01:02:29.748Z,103249.91
2018-01-08T01:03:33.873Z,103248.73
2018-01-08T01:04:38.355Z,103241.55
2018-01-08T01:05:42.477Z,103248.33
2018-01-08T01:06:46.591Z,103250.36
2018-01-08T01:07:50.751Z,103247.35
2018-01-08T01:08:55.905Z,103247.58
2018-01-08T01:10:00.152Z,103239.80
2018-01-08T01:11:04.720Z,103246.00
2018-01-08T01:12:08.920Z,103250.06
2018-01-08T01:13:13.066Z,103246.09
2018-01-08T01:14:17.252Z,103247.06
2018-01-08T01:15:21.814Z,103238.49
2018-01-08T01:16:25.996Z,103237.06
2018-01-08T01:17:30.531Z,103242.70
2018-01-08T01:18:34.826Z,103234.52
2018-01-08T01:19:39.887Z,103244.11
2018-01-08T01:20:44.120Z,103239.89
2018-01-08T01:21:48.292Z,103231.46
2018-01-08T01:22:52.461Z,103224.43
2018-01-08T01:23:56.634Z,103238.39
2018-01-08T01:25:00.988Z,103232.36
2018-01-08T01:26:05.896Z,103222.04
2018-01-08T01:27:10.063Z,103225.63
2018-01-08T01:28:14.278Z,103217.47
2018-01-08T01:29:18.557Z,103219.86
2018-01-08T01:30:23.129Z,103217.70
2018-01-08T01:31:27.294Z,103217.05
2018-01-08T01:32:31.490Z,103226.48
2018-01-08T01:33:35.789Z,103225.47
2018-01-08T01:34:40.618Z,103232.70
2018-01-08T01:35:45.138Z,103230.25
2018-01-08T01:36:49.275Z,103234.95
2018-01-08T01:37:53.532Z,103244.77
2018-01-08T01:38:57.663Z,103233.04
2018-01-08T01:40:02.723Z,103239.59
2018-01-08T01:41:06.870Z,103244.31
2018-01-08T01:42:11.451Z,103245.52
2018-01-08T01:43:15.610Z,103241.60
2018-01-08T01:44:19.708Z,103241.70
2018-01-08T01:45:23.956Z,103240.52
2018-01-08T01:46:28.141Z,103240.08
2018-01-08T01:47:32.296Z,103242.09
2018-01-08T01:48:37.488Z,103240.47
2018-01-08T01:49:41.610Z,103241.13
2018-01-08T01:50:45.789Z,103244.31
2018-01-08T01:51:50.005Z,103247.16
2018-01-08T01:52:54.106Z,103244.42
2018-01-08T01:53:58.364Z,103243.33
2018-01-08T01:55:03.768Z,103246.87
2018-01-08T01:56:07.978Z,103250.21
2018-01-08T01:57:12.111Z,103250.45
2018-01-08T01:58:16.192Z,103254.16
2018-01-08T01:59:20.404Z,103247.16
2018-01-08T02:00:25.392Z,103244.21
2018-01-08T02:01:29.677Z,103248.87
2018-01-08T02:02:33.932Z,103249.41
2018-01-08T02:03:39.037Z,103250.15
2018-01-08T02:04:43.241Z,103246.71
2018-01-08T02:05:47.355Z,103248.86
2018-01-08T02:06:51.784Z,103246.56
2018-01-08T02:07:55.893Z,103241.31
2018-01-08T02:09:00.152Z,103250.98
2018-01-08T02:10:04.357Z,103245.36
2018-01-08T02:11:09.521Z,103258.47
2018-01-08T02:12:13.643Z,103246.59
2018-01-08T02:13:18.122Z,103249.24
2018-01-08T02:14:22.254Z,103249.05
2018-01-08T02:15:26.606Z,103253.83
2018-01-08T02:16:30.847Z,103249.38
2018-01-08T02:17:35.281Z,103254.45
2018-01-08T02:18:41.152Z,103250.16
2018-01-08T02:19:45.249Z,103250.93
2018-01-08T02:20:49.467Z,103249.53
2018-01-08T02:21:53.624Z,103248.87
2018-01-08T02:22:57.822Z,103255.27
2018-01-08T02:24:02.044Z,103247.64
2018-01-08T02:25:06.256Z,103251.22
2018-01-08T02:26:11.377Z,103249.77
2018-01-08T02:27:15.561Z,103251.06
2018-01-08T02:28:19.758Z,103251.80
2018-01-08T02:29:23.923Z,103246.39
2018-01-08T02:30:28.620Z,103244.36
2018-01-08T02:31:32.752Z,103243.28
2018-01-08T02:32:37.276Z,103249.44
2018-01-08T02:33:41.388Z,103246.22
2018-01-08T02:34:45.612Z,103235.38
2018-01-08T02:35:49.837Z,103243.37
2018-01-08T02:36:54.016Z,103244.09
2018-01-08T02:37:58.205Z,103235.48
2018-01-08T02:39:02.768Z,103235.98
2018-01-08T02:40:07.247Z,103242.31
2018-01-08T02:41:11.429Z,103242.44
2018-01-08T02:42:15.560Z,103238.88
2018-01-08T02:43:19.705Z,103241.84
2018-01-08T02:44:23.846Z,103235.56
2018-01-08T02:45:28.595Z,103242.22
2018-01-08T02:46:32.700Z,103239.09
2018-01-08T02:47:36.884Z,103241.13
2018-01-08T02:48:41.035Z,103242.65
2018-01-08T02:49:45.184Z,103241.22
2018-01-08T02:50:49.699Z,103241.17
2018-01-08T02:51:53.853Z,103239.03
2018-01-08T02:52:58.063Z,103244.19
2018-01-08T02:54:02.215Z,103246.52
2018-01-08T02:55:07.127Z,103239.80
2018-01-08T02:56:11.266Z,103242.47
2018-01-08T02:57:15.736Z,103236.40
2018-01-08T02:58:19.938Z,103237.03
2018-01-08T02:59:24.197Z,103244.75
2018-01-08T03:00:28.553Z,103246.16
2018-01-08T03:01:32.712Z,103240.00
2018-01-08T03:02:37.552Z,103240.80
2018-01-08T03:03:42.057Z,103246.16
2018-01-08T03:04:46.263Z,103250.41
2018-01-08T03:05:50.380Z,103248.43
2018-01-08T03:06:54.483Z,103251.70
2018-01-08T03:07:58.571Z,103247.70
2018-01-08T03:09:02.786Z,103257.09
2018-01-08T03:10:07.577Z,103250.00
2018-01-08T03:11:11.724Z,103253.97
2018-01-08T03:12:16.014Z,103253.75
2018-01-08T03:13:20.292Z,103252.80
2018-01-08T03:14:24.482Z,103247.76
2018-01-08T03:15:29.018Z,103249.40
2018-01-08T03:16:33.899Z,103254.61
2018-01-08T03:17:38.700Z,103249.53
2018-01-08T03:18:43.140Z,103251.00
2018-01-08T03:19:47.658Z,103254.27
2018-01-08T03:20:51.776Z,103257.81
2018-01-08T03:21:55.878Z,103248.73
2018-01-08T03:23:00.334Z,103253.78
2018-01-08T03:24:04.509Z,103249.11
2018-01-08T03:25:09.342Z,103247.34
2018-01-08T03:26:13.504Z,103242.70
2018-01-08T03:27:17.636Z,103247.39
2018-01-08T03:28:21.937Z,103248.83
2018-01-08T03:29:26.572Z,103245.21
2018-01-08T03:30:31.029Z,103245.28
2018-01-08T03:31:35.136Z,103248.06
2018-01-08T03:32:40.085Z,103256.17
2018-01-08T03:33:44.704Z,103247.37
2018-01-08T03:34:49.264Z,103244.67
2018-01-08T03:35:53.370Z,103254.05
2018-01-08T03:36:57.598Z,103249.98
2018-01-08T03:38:01.751Z,103254.67
2018-01-08T03:39:06.005Z,103258.19
2018-01-08T03:40:10.649Z,103257.12
2018-01-08T03:41:14.792Z,103257.91
2018-01-08T03:42:19.309Z,103257.12
2018-01-08T03:43:23.528Z,103255.59
2018-01-08T03:44:27.638Z,103254.86
2018-01-08T03:45:31.753Z,103248.16
2018-01-08T03:46:35.931Z,103257.12
2018-01-08T03:47:40.021Z,103251.44
2018-01-08T03:48:44.461Z,103254.95
2018-01-08T03:49:48.641Z,103250.11
2018-01-08T03:50:52.887Z,103248.66
2018-01-08T03:51:57.058Z,103252.42
2018-01-08T03:53:01.285Z,103249.31
2018-01-08T03:54:05.384Z,103243.20
2018-01-08T03:55:09.873Z,103247.13
2018-01-08T03:56:14.764Z,103245.48
2018-01-08T03:57:18.884Z,103242.86
2018-01-08T03:58:23.228Z,103249.80
2018-01-08T03:59:27.450Z,103252.23
2018-01-08T04:00:32.364Z,103252.53
2018-01-08T04:01:36.443Z,103253.20
2018-01-08T04:02:40.628Z,103253.59
2018-01-08T04:03:44.867Z,103248.57
2018-01-08T04:04:49.436Z,103249.69
2018-01-08T04:05:53.886Z,103251.69
2018-01-08T04:06:58.708Z,103247.98
2018-01-08T04:08:02.916Z,103252.55
2018-01-08T04:09:07.153Z,103249.23
2018-01-08T04:10:11.365Z,103246.03
2018-01-08T04:11:15.491Z,103251.09
2018-01-08T04:12:19.610Z,103252.29
2018-01-08T04:13:24.121Z,103249.08
2018-01-08T04:14:28.216Z,103244.88
2018-01-08T04:15:32.716Z,103249.69
2018-01-08T04:16:36.844Z,103253.19
2018-01-08T04:17:41.057Z,103246.83
2018-01-08T04:18:45.118Z,103245.77
2018-01-08T04:19:49.596Z,103250.48
2018-01-08T04:20:53.814Z,103245.03
2018-01-08T04:21:57.959Z,103247.93
2018-01-08T04:23:02.233Z,103251.23
2018-01-08T04:24:06.310Z,103255.34
2018-01-08T04:25:10.565Z,103252.63
2018-01-08T04:26:14.682Z,103256.63
2018-01-08T04:27:18.929Z,103250.55
2018-01-08T04:28:23.092Z,103251.61
2018-01-08T04:29:27.312Z,103255.75
2018-01-08T04:30:31.876Z,103249.86
2018-01-08T04:31:37.066Z,103241.25
2018-01-08T04:32:41.261Z,103253.23
2018-01-08T04:33:45.414Z,103249.58
2018-01-08T04:34:49.496Z,103247.61
2018-01-08T04:35:53.931Z,103249.97
2018-01-08T04:36:58.117Z,103242.38
2018-01-08T04:38:02.333Z,103250.20
2018-01-08T04:39:07.309Z,103243.56
2018-01-08T04:40:11.445Z,103247.22
2018-01-08T04:41:15.669Z,103254.91
2018-01-08T04:42:20.146Z,103251.28
2018-01-08T04:43:24.236Z,103245.53
2018-01-08T04:44:28.378Z,103241.19
2018-01-08T04:45:33.037Z,103245.38
2018-01-08T04:46:38.124Z,103244.64
2018-01-08T04:47:42.302Z,103243.17
2018-01-08T04:48:46.786Z,103246.48
2018-01-08T04:49:50.869Z,103238.56
2018-01-08T04:50:55.036Z,103239.53
2018-01-08T04:51:59.264Z,103233.27
2018-01-08T04:53:03.437Z,103239.76
2018-01-08T04:54:08.430Z,103231.81
2018-01-08T04:55:12.918Z,103237.52
2018-01-08T04:56:17.034Z,103232.75
2018-01-08T04:57:21.331Z,103222.98
2018-01-08T04:58:25.431Z,103226.48
2018-01-08T04:59:29.588Z,103222.31
2018-01-08T05:00:34.049Z,103218.59
2018-01-08T05:01:39.004Z,103224.05
2018-01-08T05:02:44.276Z,103220.47
2018-01-08T05:03:48.389Z,103226.66
2018-01-08T05:04:52.591Z,103229.59
2018-01-08T05:05:56.744Z,103222.38
2018-01-08T05:07:00.937Z,103227.48
2018-01-08T05:08:05.575Z,103234.30
2018-01-08T05:09:10.277Z,103233.01
2018-01-08T05:10:14.481Z,103233.63
2018-01-08T05:11:18.601Z,103235.05
2018-01-08T05:12:22.720Z,103229.05
2018-01-08T05:13:26.948Z,103232.90
2018-01-08T05:14:31.453Z,103239.84
2018-01-08T05:15:35.884Z,103233.20
2018-01-08T05:16:39.990Z,103231.80
2018-01-08T05:17:44.170Z,103233.94
2018-01-08T05:18:48.276Z,103224.85
2018-01-08T05:19:52.474Z,103223.30
2018-01-08T05:20:56.922Z,103220.91
2018-01-08T05:22:01.116Z,103215.87
2018-01-08T05:23:05.265Z,103216.84
2018-01-08T05:24:09.437Z,103210.41
2018-01-08T05:25:14.000Z,103215.08
2018-01-08T05:26:19.450Z,103217.47
2018-01-08T05:27:23.613Z,103215.67
2018-01-08T05:28:27.718Z,103218.13
2018-01-08T05:29:31.859Z,103221.05
2018-01-08T05:30:36.465Z,103228.05
2018-01-08T05:31:40.610Z,103230.45
2018-01-08T05:32:45.010Z,103226.56
2018-01-08T05:33:49.370Z,103226.23
2018-01-08T05:34:53.572Z,103221.86
2018-01-08T05:35:57.712Z,103227.42
2018-01-08T05:37:01.954Z,103223.89
2018-01-08T05:38:06.100Z,103225.59
2018-01-08T05:39:10.481Z,103230.62
2018-01-08T05:40:14.681Z,103232.08
2018-01-08T05:41:18.807Z,103233.30
2018-01-08T05:42:22.884Z,103234.92
2018-01-08T05:43:27.065Z,103233.67
2018-01-08T05:44:31.189Z,103234.77
2018-01-08T05:45:36.891Z,103234.39
2018-01-08T05:46:41.312Z,103231.83
2018-01-08T05:47:45.428Z,103240.55
2018-01-08T05:48:49.640Z,103235.95
2018-01-08T05:49:53.784Z,103234.22
2018-01-08T05:50:58.480Z,103232.31
2018-01-08T05:52:02.717Z,103246.20
2018-01-08T05:53:06.859Z,103239.67
2018-01-08T05:54:11.332Z,103232.78
2018-01-08T05:55:16.249Z,103241.62
2018-01-08T05:56:20.457Z,103243.14
2018-01-08T05:57:24.597Z,103230.01
2018-01-08T05:58:28.733Z,103245.11
2018-01-08T05:59:32.965Z,103244.59
2018-01-08T06:00:37.787Z,103247.65
2018-01-08T06:01:42.661Z,103245.97
2018-01-08T06:02:47.192Z,103250.59
2018-01-08T06:03:51.344Z,103250.17
2018-01-08T06:04:55.656Z,103255.09
2018-01-08T06:05:59.826Z,103253.89
2018-01-08T06:07:03.937Z,103255.84
2018-01-08T06:08:08.807Z,103249.81
2018-01-08T06:09:12.926Z,103256.96
2018-01-08T06:10:17.209Z,103252.11
2018-01-08T06:11:21.302Z,103255.34
2018-01-08T06:12:25.408Z,103250.55
2018-01-08T06:13:29.620Z,103252.39
2018-01-08T06:14:34.133Z,103255.77
2018-01-08T06:15:39.480Z,103251.67
2018-01-08T06:16:43.614Z,103256.92
2018-01-08T06:17:47.913Z,103256.36
2018-01-08T06:18:52.014Z,103248.42
2018-01-08T06:19:56.204Z,103252.78
2018-01-08T06:21:00.653Z,103247.94
2018-01-08T06:22:04.771Z,103249.83
2018-01-08T06:23:09.677Z,103248.48
2018-01-08T06:24:13.794Z,103253.05
2018-01-08T06:25:17.978Z,103261.48
2018-01-08T06:26:22.085Z,103259.97
2018-01-08T06:27:26.194Z,103254.55
2018-01-08T06:28:30.340Z,103258.55
2018-01-08T06:29:34.588Z,103253.39
2018-01-08T06:30:39.148Z,103260.96
2018-01-08T06:31:43.250Z,103253.03
2018-01-08T06:32:47.388Z,103253.30
2018-01-08T06:33:51.857Z,103252.01
2018-01-08T06:34:55.974Z,103263.75
2018-01-08T06:36:00.066Z,103263.17
2018-01-08T06:37:04.332Z,103257.36
2018-01-08T06:38:08.534Z,103259.82
2018-01-08T06:39:13.200Z,103241.77
2018-01-08T06:40:17.605Z,103249.41
2018-01-08T06:41:21.702Z,103253.37
2018-01-08T06:42:25.983Z,103251.36
2018-01-08T06:43:30.117Z,103255.12
2018-01-08T06:44:34.273Z,103247.92
2018-01-08T06:45:39.740Z,103251.02
2018-01-08T06:46:44.518Z,103239.02
2018-01-08T06:47:48.641Z,103248.95
2018-01-08T06:48:52.716Z,103240.06
2018-01-08T06:49:56.934Z,103249.05
2018-01-08T06:51:01.121Z,103246.89
2018-01-08T06:52:05.235Z,103229.02
2018-01-08T06:53:09.724Z,103240.39
2018-01-08T06:54:14.425Z,103248.09
2018-01-08T06:55:18.634Z,103237.09
2018-01-08T06:56:22.840Z,103239.66
2018-01-08T06:57:26.966Z,103236.22
2018-01-08T06:58:31.517Z,103241.65
2018-01-08T06:59:35.624Z,103236.48
2018-01-08T07:00:40.313Z,103239.97
2018-01-08T07:01:44.487Z,103245.04
2018-01-08T07:02:48.669Z,103244.09
2018-01-08T07:03:53.736Z,103244.80
2018-01-08T07:04:58.208Z,103244.33
2018-01-08T07:06:02.436Z,103237.91
2018-01-08T07:07:06.625Z,103239.28
2018-01-08T07:08:10.828Z,103233.96
2018-01-08T07:09:14.992Z,103235.56
2018-01-08T07:10:19.286Z,103236.15
2018-01-08T07:11:23.749Z,103240.03
2018-01-08T07:12:27.911Z,103246.22
2018-01-08T07:13:32.115Z,103241.87
2018-01-08T07:14:36.925Z,103241.00
2018-01-08T07:15:41.285Z,103237.64
2018-01-08T07:16:45.416Z,103233.92
2018-01-08T07:17:49.609Z,103230.55
2018-01-08T07:18:53.733Z,103244.13
2018-01-08T07:19:57.837Z,103234.08
2018-01-08T07:21:01.998Z,103235.43
2018-01-08T07:22:06.208Z,103230.75
2018-01-08T07:23:10.344Z,103241.75
2018-01-08T07:24:14.911Z,103225.91
2018-01-08T07:25:19.100Z,103235.88
2018-01-08T07:26:23.252Z,103232.02
2018-01-08T07:27:27.438Z,103229.79
2018-01-08T07:28:31.685Z,103234.56
2018-01-08T07:29:35.874Z,103236.48
2018-01-08T07:30:40.998Z,103240.06
2018-01-08T07:31:45.269Z,103236.97
2018-01-08T07:32:49.758Z,103221.80
2018-01-08T07:33:53.990Z,103238.58
2018-01-08T07:34:58.188Z,103233.81
2018-01-08T07:36:02.276Z,103240.46
2018-01-08T07:37:06.699Z,103231.97
2018-01-08T07:38:11.594Z,103240.05
2018-01-08T07:39:16.312Z,103239.87
2018-01-08T07:40:20.545Z,103244.68
2018-01-08T07:41:24.700Z,103233.27
2018-01-08T07:42:28.953Z,103245.94
2018-01-08T07:43:33.400Z,103232.62
2018-01-08T07:44:37.525Z,103242.16
2018-01-08T07:45:42.341Z,103237.97
2018-01-08T07:46:46.458Z,103244.00
2018-01-08T07:47:50.614Z,103246.79
2018-01-08T07:48:55.496Z,103240.55
2018-01-08T07:49:59.934Z,103243.70
2018-01-08T07:51:04.162Z,103238.00
2018-01-08T07:52:09.561Z,103224.73
2018-01-08T07:53:13.758Z,103234.39
2018-01-08T07:54:17.890Z,103230.28
2018-01-08T07:55:22.065Z,103234.27
2018-01-08T07:56:26.506Z,103225.91
2018-01-08T07:57:30.664Z,103227.79
2018-01-08T07:58:34.868Z,103215.32
2018-01-08T07:59:39.652Z,103222.58
2018-01-08T08:00:44.328Z,103225.81
2018-01-08T08:01:48.641Z,103225.84
2018-01-08T08:02:52.737Z,103230.00
2018-01-08T08:03:57.336Z,103223.55
2018-01-08T08:05:01.504Z,103214.36
2018-01-08T08:06:05.674Z,103218.38
2018-01-08T08:07:10.018Z,103227.16
2018-01-08T08:08:14.149Z,103214.58
2018-01-08T08:09:18.723Z,103218.83
2018-01-08T08:10:22.793Z,103218.41
2018-01-08T08:11:26.973Z,103221.48
2018-01-08T08:12:31.076Z,103213.64
2018-01-08T08:13:35.253Z,103215.51
2018-01-08T08:14:39.377Z,103215.66
2018-01-08T08:15:44.227Z,103214.45
2018-01-08T08:16:48.649Z,103215.14
2018-01-08T08:17:52.861Z,103216.64
2018-01-08T08:18:57.052Z,103218.98
2018-01-08T08:20:01.206Z,103215.30
2018-01-08T08:21:05.760Z,103206.78
2018-01-08T08:22:11.067Z,103209.58
2018-01-08T08:23:15.188Z,103209.84
2018-01-08T08:24:19.370Z,103211.84
2018-01-08T08:25:23.530Z,103202.97
2018-01-08T08:26:27.632Z,103205.50
2018-01-08T08:27:31.767Z,103205.92
2018-01-08T08:28:36.026Z,103197.70
2018-01-08T08:29:40.156Z,103206.88
2018-01-08T08:30:44.389Z,103204.67
2018-01-08T08:31:48.514Z,103202.30
2018-01-08T08:32:52.789Z,103190.62
2018-01-08T08:33:57.468Z,103196.52
2018-01-08T08:35:01.787Z,103195.87
2018-01-08T08:36:05.957Z,103177.23
2018-01-08T08:37:10.189Z,103190.28
2018-01-08T08:38:14.443Z,103203.09
2018-01-08T08:39:18.580Z,103197.91
2018-01-08T08:40:23.197Z,103198.73
2018-01-08T08:41:27.355Z,103202.78
2018-01-08T08:42:31.503Z,103197.22
2018-01-08T08:43:37.042Z,103190.58
2018-01-08T08:44:41.141Z,103188.95
2018-01-08T08:45:45.264Z,103195.59
2018-01-08T08:46:49.876Z,103191.53
2018-01-08T08:47:54.046Z,103193.81
2018-01-08T08:48:58.362Z,103190.77
2018-01-08T08:50:02.495Z,103187.12
2018-01-08T08:51:06.637Z,103186.10
2018-01-08T08:52:10.836Z,103192.05
2018-01-08T08:53:14.946Z,103183.89
2018-01-08T08:54:19.182Z,103185.78
2018-01-08T08:55:23.329Z,103179.17
2018-01-08T08:56:27.571Z,103178.19
2018-01-08T08:57:31.846Z,103178.11
2018-01-08T08:58:36.019Z,103178.33
2018-01-08T08:59:40.984Z,103176.58
2018-01-08T09:00:45.345Z,103175.16
2018-01-08T09:01:49.501Z,103177.45
2018-01-08T09:02:53.763Z,103180.08
2018-01-08T09:03:58.024Z,103183.38
2018-01-08T09:05:02.555Z,103177.63
2018-01-08T09:06:06.760Z,103175.39
2018-01-08T09:07:11.793Z,103171.64
2018-01-08T09:08:16.016Z,103183.27
2018-01-08T09:09:20.188Z,103177.49
2018-01-08T09:10:24.345Z,103177.72
2018-01-08T09:11:28.884Z,103180.98
2018-01-08T09:12:33.124Z,103177.67
2018-01-08T09:13:37.320Z,103178.76
2018-01-08T09:14:42.017Z,103170.58
2018-01-08T09:15:46.179Z,103175.05
2018-01-08T09:16:50.335Z,103167.96
2018-01-08T09:17:54.897Z,103172.58
2018-01-08T09:18:59.241Z,103175.41
2018-01-08T09:20:03.452Z,103167.01
2018-01-08T09:21:07.694Z,103176.20
2018-01-08T09:22:12.734Z,103179.09
2018-01-08T09:23:16.856Z,103176.91
2018-01-08T09:24:21.096Z,103176.41
2018-01-08T09:25:25.272Z,103170.31
2018-01-08T09:26:29.508Z,103174.53
2018-01-08T09:27:33.642Z,103169.11
2018-01-08T09:28:38.834Z,103174.40
2018-01-08T09:29:43.297Z,103160.48
2018-01-08T09:30:47.397Z,103179.40
2018-01-08T09:31:51.664Z,103175.50
2018-01-08T09:32:55.822Z,103163.77
2018-01-08T09:33:59.942Z,103172.04
2018-01-08T09:35:04.435Z,103169.55
2018-01-08T09:36:08.697Z,103174.57
2018-01-08T09:37:13.833Z,103172.73
2018-01-08T09:38:18.012Z,103177.23
2018-01-08T09:39:22.132Z,103171.14
2018-01-08T09:40:26.329Z,103171.45
2018-01-08T09:41:30.493Z,103179.75
2018-01-08T09:42:34.688Z,103171.16
2018-01-08T09:43:38.835Z,103175.55
2018-01-08T09:44:43.011Z,103179.13
2018-01-08T09:45:47.410Z,103165.05
2018-01-08T09:46:52.011Z,103170.68
2018-01-08T09:47:56.165Z,103172.48
2018-01-08T09:49:00.358Z,103178.73
2018-01-08T09:50:04.558Z,103169.05
2018-01-08T09:51:08.897Z,103182.94
2018-01-08T09:52:13.088Z,103176.20
2018-01-08T09:53:17.585Z,103169.02
2018-01-08T09:54:21.695Z,103164.55
2018-01-08T09:55:25.865Z,103175.31
2018-01-08T09:56:30.105Z,103176.23
2018-01-08T09:57:34.267Z,103175.17
2018-01-08T09:58:39.128Z,103170.18
2018-01-08T09:59:43.298Z,103169.92
2018-01-08T10:00:47.690Z,103174.08
2018-01-08T10:01:52.425Z,103168.32
2018-01-08T10:03:07.202Z,103177.80
2018-01-08T10:04:22.107Z,103178.25
2018-01-08T10:05:38.386Z,103170.81
2018-01-08T10:06:53.165Z,103169.48
2018-01-08T10:08:07.949Z,103165.72
2018-01-08T10:09:22.845Z,103160.52
2018-01-08T10:10:37.855Z,103171.80
2018-01-08T10:11:53.016Z,103175.33
2018-01-08T10:13:07.824Z,103168.36
2018-01-08T10:14:22.708Z,103162.68
2018-01-08T10:15:37.863Z,103158.22
2018-01-08T10:16:52.997Z,103159.84
2018-01-08T10:18:08.847Z,103161.44
2018-01-08T10:19:56.284Z,103152.91
2018-01-08T10:21:00.446Z,103150.90
2018-01-08T10:22:05.582Z,103149.50
2018-01-08T10:23:10.015Z,103148.77
2018-01-08T10:24:14.970Z,103154.12
2018-01-08T10:25:19.194Z,103141.83
2018-01-08T10:26:23.321Z,103150.41
2018-01-08T10:27:27.528Z,103150.09
2018-01-08T10:28:32.926Z,103144.64
2018-01-08T10:29:37.041Z,103139.01
2018-01-08T10:30:41.636Z,103125.88
2018-01-08T10:31:45.756Z,103134.34
2018-01-08T10:32:49.975Z,103139.11
2018-01-08T10:33:54.118Z,103131.45
2018-01-08T10:34:58.425Z,103135.30
2018-01-08T10:36:02.722Z,103134.00
2018-01-08T10:37:07.199Z,103138.09
2018-01-08T10:38:12.195Z,103130.41
2018-01-08T10:39:16.358Z,103129.44
2018-01-08T10:40:20.714Z,103126.30
2018-01-08T10:41:29.751Z,103126.23
2018-01-08T10:42:39.146Z,103125.37
2018-01-08T10:43:48.286Z,103121.70
2018-01-08T10:44:57.350Z,103117.33
2018-01-08T10:46:06.947Z,103110.30
2018-01-08T10:47:17.247Z,103113.44
2018-01-08T10:48:27.031Z,103122.33
2018-01-08T10:49:36.526Z,103120.71
2018-01-08T10:50:46.512Z,103132.60
2018-01-08T10:51:49.594Z,103119.79
2018-01-08T10:52:54.014Z,103124.53
2018-01-08T10:53:58.452Z,103118.59
2018-01-08T10:55:03.110Z,103115.80
2018-01-08T10:56:07.324Z,103110.74
2018-01-08T10:57:11.494Z,103109.78
2018-01-08T10:58:15.644Z,103114.27
2018-01-08T10:59:19.822Z,103104.75
2018-01-08T11:00:24.325Z,103104.59
2018-01-08T11:01:32.807Z,103106.66
2018-01-08T11:04:43.107Z,103112.36
2018-01-08T11:05:47.601Z,103107.45
2018-01-08T11:06:51.776Z,103090.64
2018-01-08T11:07:56.051Z,103096.89
2018-01-08T11:09:00.254Z,103096.47
2018-01-08T11:10:04.529Z,103099.44
2018-01-08T11:11:08.865Z,103089.79
2018-01-08T11:12:13.334Z,103096.81
2018-01-08T11:13:17.434Z,103094.82
2018-01-08T11:14:22.058Z,103090.71
2018-01-08T11:15:26.500Z,103082.83
2018-01-08T11:16:30.796Z,103086.42
2018-01-08T11:17:34.986Z,103075.25
2018-01-08T11:18:40.360Z,103084.91
2018-01-08T11:19:44.550Z,103082.10
2018-01-08T11:20:48.752Z,103076.63
2018-01-08T11:21:53.005Z,103080.43
2018-01-08T11:22:57.148Z,103081.59
2018-01-08T11:24:01.724Z,103082.59
2018-01-08T11:25:05.920Z,103086.16
2018-01-08T11:26:10.777Z,103071.59
2018-01-08T11:27:15.034Z,103070.53
2018-01-08T11:28:19.339Z,103060.36
2018-01-08T11:29:23.449Z,103068.67
2018-01-08T11:30:28.188Z,103062.60
2018-01-08T11:31:32.755Z,103047.16
2018-01-08T11:32:37.004Z,103073.38
2018-01-08T11:33:42.167Z,103066.50
2018-01-08T11:34:46.336Z,103061.45
2018-01-08T11:35:50.554Z,103055.39
2018-01-08T11:36:54.816Z,103058.53
2018-01-08T11:37:59.288Z,103060.31
2018-01-08T11:39:03.674Z,103048.64
2018-01-08T11:40:08.463Z,103047.61
2018-01-08T11:41:13.121Z,103055.61
2018-01-08T11:42:17.302Z,103057.55
2018-01-08T11:43:21.553Z,103054.33
2018-01-08T11:44:26.109Z,103053.09
2018-01-08T11:45:30.617Z,103046.65
2018-01-08T11:46:34.817Z,103047.97
2018-01-08T11:47:39.553Z,103035.44
2018-01-08T11:48:43.720Z,103045.08
2018-01-08T11:49:48.019Z,103041.50
2018-01-08T11:50:52.985Z,103026.02
2018-01-08T11:51:57.122Z,103027.77
2018-01-08T11:53:01.386Z,103026.20
2018-01-08T11:54:05.902Z,103031.59
2018-01-08T11:55:10.835Z,103032.56
2018-01-08T11:56:15.411Z,103037.41
2018-01-08T11:57:19.569Z,103032.63
2018-01-08T11:58:23.730Z,103026.42
2018-01-08T11:59:27.988Z,103020.89
2018-01-08T12:00:33.110Z,103015.25
2018-01-08T12:01:37.231Z,103015.48
2018-01-08T12:02:42.683Z,103013.52
2018-01-08T12:03:46.940Z,103013.27
2018-01-08T12:04:51.135Z,103015.41
2018-01-08T12:05:55.455Z,103011.25
2018-01-08T12:06:59.657Z,103016.08
2018-01-08T12:08:04.131Z,103007.13
2018-01-08T12:09:08.853Z,103000.83
2018-01-08T12:10:13.949Z,103007.22
2018-01-08T12:11:18.294Z,103008.48
2018-01-08T12:12:22.514Z,103005.31
2018-01-08T12:13:26.875Z,103003.11
2018-01-08T12:14:31.113Z,102998.93
2018-01-08T12:15:35.465Z,102995.05
2018-01-08T12:16:41.453Z,102992.36
2018-01-08T12:17:45.629Z,102987.12
2018-01-08T12:18:50.456Z,102998.55
2018-01-08T12:19:54.887Z,102999.29